createdAt,value
2018-10-12T00:01:26.453Z,14.80
2018-10-12T00:03:57.485Z,14.90
2018-10-12T00:06:28.379Z,14.90
2018-10-12T00:08:59.339Z,14.80
2018-10-12T00:11:29.918Z,14.80
2018-10-12T00:14:00.617Z,14.80
2018-10-12T00:16:31.352Z,14.80
2018-10-12T00:19:02.261Z,14.80
2018-10-12T00:21:33.833Z,14.90
2018-10-12T00:24:04.680Z,14.90
2018-10-12T00:26:35.356Z,14.90
2018-10-12T00:29:06.252Z,14.90
2018-10-12T00:31:36.875Z,14.90
2018-10-12T00:34:07.633Z,14.90
2018-10-12T00:36:38.554Z,14.90
2018-10-12T00:39:09.888Z,14.90
2018-10-12T00:41:40.565Z,14.90
2018-10-12T00:44:11.268Z,14.90
2018-10-12T00:46:42.000Z,14.90
2018-10-12T00:49:12.772Z,14.90
2018-10-12T00:51:43.577Z,14.90
2018-10-12T00:54:14.319Z,14.90
2018-10-12T00:56:45.527Z,14.80
2018-10-12T00:59:16.155Z,14.80
2018-10-12T01:01:46.860Z,14.80
2018-10-12T01:04:17.676Z,14.80
2018-10-12T01:06:48.646Z,14.80
2018-10-12T01:09:19.271Z,14.80
2018-10-12T01:11:50.235Z,14.80
2018-10-12T01:14:21.175Z,14.80
2018-10-12T01:17:08.643Z,14.70
2018-10-12T01:19:39.600Z,14.70
2018-10-12T01:22:10.383Z,14.80
2018-10-12T01:24:41.169Z,14.80
2018-10-12T01:27:11.922Z,14.80
2018-10-12T01:29:42.672Z,14.80
2018-10-12T01:32:18.200Z,14.80
2018-10-12T01:34:48.994Z,14.80
2018-10-12T01:37:19.736Z,14.80
2018-10-12T01:39:50.969Z,14.90
2018-10-12T01:42:22.376Z,14.90
2018-10-12T01:44:54.106Z,14.90
2018-10-12T01:47:24.805Z,14.90
2018-10-12T01:49:55.865Z,14.90
2018-10-12T01:52:26.536Z,14.90
2018-10-12T01:54:57.295Z,14.90
2018-10-12T01:57:28.060Z,14.90
2018-10-12T01:59:58.833Z,15.00
2018-10-12T02:02:29.726Z,14.90
2018-10-12T02:05:00.520Z,14.90
2018-10-12T02:07:31.269Z,14.90
2018-10-12T02:10:02.000Z,14.90
2018-10-12T02:12:32.908Z,14.90
2018-10-12T02:15:03.780Z,14.90
2018-10-12T02:17:34.728Z,14.90
2018-10-12T02:20:05.425Z,14.90
2018-10-12T02:22:36.556Z,14.90
2018-10-12T02:25:08.430Z,14.80
2018-10-12T02:27:39.361Z,14.80
2018-10-12T02:30:10.993Z,14.80
2018-10-12T02:32:41.762Z,14.80
2018-10-12T02:35:12.479Z,14.80
2018-10-12T02:37:43.222Z,14.80
2018-10-12T02:40:14.145Z,14.70
2018-10-12T02:42:44.941Z,14.70
2018-10-12T02:45:15.627Z,14.70
2018-10-12T02:47:46.356Z,14.70
2018-10-12T02:50:17.253Z,14.80
2018-10-12T02:52:47.905Z,14.80
2018-10-12T02:55:18.650Z,14.90
2018-10-12T02:57:49.392Z,14.90
2018-10-12T03:00:20.303Z,14.90
2018-10-12T03:02:51.003Z,14.90
2018-10-12T03:05:21.825Z,14.90
2018-10-12T03:07:52.613Z,14.90
2018-10-12T03:10:23.471Z,14.90
2018-10-12T03:12:54.400Z,15.00
2018-10-12T03:15:25.261Z,15.00
2018-10-12T03:17:56.292Z,15.00
2018-10-12T03:20:27.260Z,15.10
2018-10-12T03:22:58.070Z,15.10
2018-10-12T03:25:29.072Z,15.10
2018-10-12T03:28:16.240Z,15.20
2018-10-12T03:30:47.162Z,15.20
2018-10-12T03:33:17.945Z,15.20
2018-10-12T03:35:49.433Z,15.20
2018-10-12T03:38:20.164Z,15.20
2018-10-12T03:40:50.966Z,15.20
2018-10-12T03:43:21.700Z,15.20
2018-10-12T03:45:52.449Z,15.20
2018-10-12T03:48:23.322Z,15.10
2018-10-12T03:50:54.296Z,15.10
2018-10-12T03:53:25.304Z,15.10
2018-10-12T03:55:56.097Z,15.10
2018-10-12T03:58:26.784Z,15.10
2018-10-12T04:01:04.171Z,15.00
2018-10-12T04:03:36.004Z,15.00
2018-10-12T04:06:06.913Z,15.00
2018-10-12T04:08:37.825Z,14.90
2018-10-12T04:11:09.004Z,14.90
2018-10-12T04:13:39.803Z,14.90
2018-10-12T04:16:10.815Z,14.90
2018-10-12T04:18:41.955Z,14.90
2018-10-12T04:21:13.040Z,14.90
2018-10-12T04:23:44.119Z,14.90
2018-10-12T04:26:14.948Z,14.90
2018-10-12T04:28:45.781Z,15.00
2018-10-12T04:31:16.441Z,15.00
2018-10-12T04:33:47.151Z,15.00
2018-10-12T04:36:17.930Z,15.00
2018-10-12T04:39:05.743Z,14.90
2018-10-12T04:41:36.703Z,14.90
2018-10-12T04:44:08.056Z,14.80
2018-10-12T04:46:43.129Z,14.80
2018-10-12T04:49:16.916Z,14.80
2018-10-12T04:52:02.361Z,14.70
2018-10-12T04:54:33.140Z,14.70
2018-10-12T04:57:04.297Z,14.60
2018-10-12T04:59:34.927Z,14.60
2018-10-12T05:02:07.557Z,14.50
2018-10-12T05:04:38.556Z,14.50
2018-10-12T05:07:09.569Z,14.50
2018-10-12T05:09:40.615Z,14.40
2018-10-12T05:12:11.375Z,14.50
2018-10-12T05:14:42.193Z,14.50
2018-10-12T05:17:13.199Z,14.50
2018-10-12T05:19:43.906Z,14.50
2018-10-12T05:22:14.770Z,14.60
2018-10-12T05:24:45.602Z,14.60
2018-10-12T05:27:16.499Z,14.60
2018-10-12T05:29:47.318Z,14.60
2018-10-12T05:32:18.558Z,14.60
2018-10-12T05:34:49.363Z,14.60
2018-10-12T05:37:20.329Z,14.60
2018-10-12T05:39:51.070Z,14.60
2018-10-12T05:42:21.778Z,14.60
2018-10-12T05:44:52.571Z,14.60
2018-10-12T05:47:23.368Z,14.60
2018-10-12T05:50:05.153Z,14.60
2018-10-12T05:52:37.045Z,14.70
2018-10-12T05:55:08.212Z,14.70
2018-10-12T05:57:42.365Z,14.80
2018-10-12T06:00:14.213Z,14.80
2018-10-12T06:02:45.108Z,14.90
2018-10-12T06:05:15.990Z,14.90
2018-10-12T06:07:47.338Z,14.90
2018-10-12T06:10:18.262Z,15.00
2018-10-12T06:12:49.245Z,15.10
2018-10-12T06:15:20.401Z,15.20
2018-10-12T06:17:51.306Z,15.30
2018-10-12T06:20:23.023Z,15.40
2018-10-12T06:22:54.063Z,15.40
2018-10-12T06:25:24.937Z,15.60
2018-10-12T06:27:55.857Z,15.60
2018-10-12T06:30:26.650Z,15.70
2018-10-12T06:32:57.490Z,15.80
2018-10-12T06:35:28.917Z,15.90
2018-10-12T06:38:00.489Z,16.00
2018-10-12T06:40:32.060Z,16.20
2018-10-12T06:43:03.054Z,16.30
2018-10-12T06:45:33.941Z,16.50
2018-10-12T06:48:05.057Z,16.60
2018-10-12T06:50:36.547Z,16.60
2018-10-12T06:53:07.822Z,16.70
2018-10-12T06:55:39.153Z,16.70
2018-10-12T06:58:10.509Z,16.80
2018-10-12T07:00:42.184Z,16.90
2018-10-12T07:03:22.121Z,17.00
2018-10-12T07:05:53.407Z,17.00
2018-10-12T07:08:24.667Z,17.10
2018-10-12T07:10:55.475Z,17.20
2018-10-12T07:13:26.186Z,17.30
2018-10-12T07:15:57.092Z,17.30
2018-10-12T07:18:28.001Z,17.40
2018-10-12T07:20:59.749Z,17.60
2018-10-12T07:23:30.257Z,17.70
2018-10-12T07:26:02.417Z,17.90
2018-10-12T07:28:33.547Z,18.00
2018-10-12T07:31:05.429Z,18.20
2018-10-12T07:33:36.461Z,18.40
2018-10-12T07:36:07.625Z,18.60
2018-10-12T07:38:38.315Z,18.80
2018-10-12T07:41:09.534Z,19.10
2018-10-12T07:43:40.581Z,19.50
2018-10-12T07:46:11.893Z,19.80
2018-10-12T07:48:42.709Z,20.50
2018-10-12T07:51:13.753Z,21.40
2018-10-12T07:53:44.748Z,22.00
2018-10-12T07:56:15.975Z,22.30
2018-10-12T07:58:47.296Z,22.30
2018-10-12T08:01:18.483Z,22.60
2018-10-12T08:03:49.391Z,22.90
2018-10-12T08:06:20.595Z,23.20
2018-10-12T08:08:51.816Z,23.50
2018-10-12T08:11:23.111Z,24.00
2018-10-12T08:13:54.166Z,24.20
2018-10-12T08:16:25.133Z,24.20
2018-10-12T08:18:56.198Z,23.90
2018-10-12T08:21:27.063Z,23.80
2018-10-12T08:23:57.939Z,24.00
2018-10-12T08:26:29.268Z,24.10
2018-10-12T08:29:00.178Z,24.40
2018-10-12T08:31:32.215Z,24.80
2018-10-12T08:34:03.473Z,25.00
2018-10-12T08:36:34.707Z,25.40
2018-10-12T08:39:08.429Z,25.90
2018-10-12T08:41:39.304Z,26.10
2018-10-12T08:44:10.165Z,26.00
2018-10-12T08:46:40.961Z,26.00
2018-10-12T08:49:11.768Z,26.10
2018-10-12T08:51:42.461Z,26.30
2018-10-12T08:54:13.212Z,26.60
2018-10-12T08:56:44.027Z,26.70
2018-10-12T08:59:14.985Z,26.80
2018-10-12T09:01:45.852Z,27.00
2018-10-12T09:04:16.735Z,27.10
2018-10-12T09:06:47.972Z,27.50
2018-10-12T09:09:18.819Z,27.50
2018-10-12T09:11:49.729Z,27.40
2018-10-12T09:14:20.459Z,27.40
2018-10-12T09:16:51.322Z,27.40
2018-10-12T09:19:22.045Z,27.70
2018-10-12T09:21:53.819Z,27.60
2018-10-12T09:24:25.583Z,27.80
2018-10-12T09:26:57.185Z,27.90
2018-10-12T09:29:28.092Z,28.20
2018-10-12T09:31:59.638Z,28.30
2018-10-12T09:34:30.355Z,28.30
2018-10-12T09:37:02.287Z,28.50
2018-10-12T09:39:33.099Z,28.90
2018-10-12T09:42:04.009Z,29.00
2018-10-12T09:44:34.806Z,29.00
2018-10-12T09:47:05.606Z,29.10
2018-10-12T09:49:36.532Z,29.40
2018-10-12T09:52:07.389Z,29.60
2018-10-12T09:54:38.017Z,29.60
2018-10-12T09:57:14.277Z,29.70
2018-10-12T09:59:45.328Z,29.70
2018-10-12T10:02:21.823Z,30.10
2018-10-12T10:04:52.969Z,30.20
2018-10-12T10:07:23.884Z,30.40
2018-10-12T10:09:54.576Z,30.40
2018-10-12T10:12:25.534Z,30.00
2018-10-12T10:14:56.324Z,30.40
2018-10-12T10:17:27.154Z,30.60
2018-10-12T10:19:58.205Z,30.60
2018-10-12T10:22:29.471Z,30.30
2018-10-12T10:25:00.310Z,30.10
2018-10-12T10:27:31.223Z,30.20
2018-10-12T10:30:02.493Z,30.30
2018-10-12T10:32:33.371Z,30.30
2018-10-12T10:35:04.540Z,30.50
2018-10-12T10:37:37.141Z,30.40
2018-10-12T10:40:08.358Z,30.70
2018-10-12T10:42:39.383Z,30.60
2018-10-12T10:45:11.175Z,30.40
2018-10-12T10:47:42.674Z,30.30
2018-10-12T10:50:14.048Z,30.20
2018-10-12T10:52:45.296Z,30.40
2018-10-12T10:55:16.425Z,30.60
2018-10-12T10:57:47.317Z,30.80
2018-10-12T11:00:18.244Z,31.00
2018-10-12T11:02:49.305Z,30.90
2018-10-12T11:05:20.308Z,30.90
2018-10-12T11:07:51.367Z,30.90
2018-10-12T11:10:22.385Z,30.80
2018-10-12T11:12:53.276Z,31.20
2018-10-12T11:15:24.243Z,31.00
2018-10-12T11:17:55.346Z,31.10
2018-10-12T11:20:26.375Z,31.50
2018-10-12T11:22:57.483Z,31.40
2018-10-12T11:25:28.992Z,31.60
2018-10-12T11:27:59.921Z,31.80
2018-10-12T11:30:31.539Z,31.60
2018-10-12T11:33:03.664Z,32.40
2018-10-12T11:35:34.736Z,32.70
2018-10-12T11:38:05.861Z,32.70
2018-10-12T11:40:36.915Z,32.90
2018-10-12T11:43:23.260Z,32.70
2018-10-12T11:45:55.182Z,32.80
2018-10-12T11:48:25.874Z,33.20
2018-10-12T11:50:57.331Z,32.90
2018-10-12T11:53:28.169Z,32.80
2018-10-12T11:55:58.917Z,33.10
2018-10-12T11:58:29.939Z,32.50
2018-10-12T12:01:01.008Z,33.10
2018-10-12T12:03:31.909Z,33.20
2018-10-12T12:06:02.731Z,33.10
2018-10-12T12:08:34.311Z,33.00
2018-10-12T12:11:05.049Z,32.90
2018-10-12T12:13:36.185Z,33.10
2018-10-12T12:16:07.497Z,33.50
2018-10-12T12:18:39.019Z,33.30
2018-10-12T12:21:11.530Z,33.40
2018-10-12T12:23:42.310Z,33.30
2018-10-12T12:26:13.284Z,33.70
2018-10-12T12:28:45.172Z,33.90
2018-10-12T12:31:15.865Z,33.90
2018-10-12T12:33:47.173Z,33.70
2018-10-12T12:36:18.472Z,33.10
2018-10-12T12:38:49.821Z,32.90
2018-10-12T12:41:20.728Z,31.90
2018-10-12T12:43:51.888Z,32.20
2018-10-12T12:46:23.855Z,32.60
2018-10-12T12:48:55.518Z,32.20
2018-10-12T12:51:26.181Z,32.20
2018-10-12T12:53:57.537Z,33.10
2018-10-12T12:56:28.837Z,32.90
2018-10-12T12:58:59.821Z,32.90
2018-10-12T13:01:30.687Z,33.00
2018-10-12T13:04:01.639Z,32.70
2018-10-12T13:06:32.975Z,32.50
2018-10-12T13:09:05.167Z,32.90
2018-10-12T13:11:36.301Z,33.10
2018-10-12T13:14:07.514Z,33.30
2018-10-12T13:16:39.024Z,33.80
2018-10-12T13:19:10.028Z,33.50
2018-10-12T13:21:42.606Z,33.00
2018-10-12T13:24:13.936Z,33.30
2018-10-12T13:26:45.088Z,33.40
2018-10-12T13:29:16.094Z,33.40
2018-10-12T13:31:47.370Z,33.40
2018-10-12T13:34:18.572Z,33.90
2018-10-12T13:36:49.541Z,33.80
2018-10-12T13:39:20.667Z,32.70
2018-10-12T13:41:51.655Z,32.70
2018-10-12T13:44:23.218Z,32.80
2018-10-12T13:46:55.255Z,32.80
2018-10-12T13:49:26.544Z,33.40
2018-10-12T13:51:57.656Z,32.80
2018-10-12T13:54:28.776Z,32.70
2018-10-12T13:57:01.291Z,31.20
2018-10-12T13:59:32.662Z,31.10
2018-10-12T14:02:04.562Z,30.90
2018-10-12T14:04:35.764Z,30.90
2018-10-12T14:07:06.732Z,31.20
2018-10-12T14:09:37.868Z,31.60
2018-10-12T14:12:10.780Z,31.80
2018-10-12T14:14:42.801Z,31.80
2018-10-12T14:17:15.032Z,31.60
2018-10-12T14:19:46.261Z,31.70
2018-10-12T14:22:17.168Z,31.50
2018-10-12T14:24:48.473Z,31.10
2018-10-12T14:27:20.070Z,31.20
2018-10-12T14:29:51.868Z,31.40
2018-10-12T14:32:27.272Z,31.00
2018-10-12T14:34:58.613Z,30.10
2018-10-12T14:37:29.864Z,30.00
2018-10-12T14:40:02.206Z,30.20
2018-10-12T14:42:33.771Z,30.50
2018-10-12T14:45:05.413Z,30.40
2018-10-12T14:47:37.219Z,30.00
2018-10-12T14:50:08.495Z,29.60
2018-10-12T14:52:39.730Z,29.30
2018-10-12T14:55:11.083Z,29.40
2018-10-12T14:57:42.226Z,28.90
2018-10-12T15:00:15.060Z,28.60
2018-10-12T15:02:46.928Z,29.00
2018-10-12T15:05:20.817Z,29.00
2018-10-12T15:07:52.831Z,28.90
2018-10-12T15:10:26.999Z,28.90
2018-10-12T15:12:58.398Z,29.00
2018-10-12T15:15:32.073Z,29.00
2018-10-12T15:18:03.381Z,28.80
2018-10-12T15:20:35.315Z,28.70
2018-10-12T15:23:07.352Z,28.60
2018-10-12T15:25:40.772Z,28.40
2018-10-12T15:28:13.664Z,28.20
2018-10-12T15:30:47.120Z,28.00
2018-10-12T15:33:22.397Z,27.80
2018-10-12T15:35:55.856Z,27.90
2018-10-12T15:38:28.608Z,28.00
2018-10-12T15:41:00.676Z,28.00
2018-10-12T15:43:34.670Z,27.90
2018-10-12T15:46:08.888Z,27.60
2018-10-12T15:48:41.408Z,27.40
2018-10-12T15:51:13.958Z,27.20
2018-10-12T15:53:46.291Z,26.80
2018-10-12T15:56:18.694Z,26.60
2018-10-12T15:58:50.849Z,26.10
2018-10-12T16:01:24.303Z,26.00
2018-10-12T16:03:56.846Z,26.00
2018-10-12T16:06:29.314Z,25.90
2018-10-12T16:09:02.314Z,25.70
2018-10-12T16:11:34.842Z,25.40
2018-10-12T16:14:07.078Z,25.10
2018-10-12T16:16:39.424Z,24.80
2018-10-12T16:19:11.798Z,24.40
2018-10-12T16:21:44.232Z,23.90
2018-10-12T16:24:16.701Z,23.50
2018-10-12T16:26:49.090Z,23.00
2018-10-12T16:29:21.681Z,22.50
2018-10-12T16:31:54.666Z,22.20
2018-10-12T16:34:26.983Z,22.00
2018-10-12T16:36:59.519Z,22.00
2018-10-12T16:39:31.931Z,21.80
2018-10-12T16:42:05.742Z,21.80
2018-10-12T16:44:38.999Z,21.60
2018-10-12T16:47:11.735Z,21.50
2018-10-12T16:49:44.661Z,21.40
2018-10-12T16:52:18.450Z,21.30
2018-10-12T16:54:51.725Z,21.10
2018-10-12T16:57:32.131Z,21.00
2018-10-12T17:00:04.508Z,20.90
2018-10-12T17:02:37.340Z,20.70
2018-10-12T17:05:10.104Z,20.50
2018-10-12T17:07:42.856Z,20.40
2018-10-12T17:10:15.189Z,20.10
2018-10-12T17:12:47.949Z,20.00
2018-10-12T17:15:22.819Z,19.90
2018-10-12T17:17:57.013Z,19.80
2018-10-12T17:20:29.797Z,19.70
2018-10-12T17:23:03.452Z,19.70
2018-10-12T17:25:36.536Z,19.60
2018-10-12T17:28:09.713Z,19.60
2018-10-12T17:30:42.181Z,19.60
2018-10-12T17:33:14.465Z,19.50
2018-10-12T17:35:47.512Z,19.50
2018-10-12T17:38:20.312Z,19.40
2018-10-12T17:40:53.723Z,19.30
2018-10-12T17:43:26.615Z,19.00
2018-10-12T17:45:59.719Z,18.90
2018-10-12T17:48:32.509Z,18.70
2018-10-12T17:51:05.973Z,18.60
2018-10-12T17:53:38.748Z,18.50
2018-10-12T17:56:11.045Z,18.40
2018-10-12T17:58:44.214Z,18.20
2018-10-12T18:01:17.620Z,18.10
2018-10-12T18:03:50.386Z,18.10
2018-10-12T18:06:22.920Z,18.10
2018-10-12T18:08:55.770Z,18.00
2018-10-12T18:11:28.825Z,18.00
2018-10-12T18:14:04.793Z,17.90
2018-10-12T18:16:37.771Z,17.90
2018-10-12T18:19:10.718Z,17.80
2018-10-12T18:21:44.723Z,17.60
2018-10-12T18:24:18.498Z,17.50
2018-10-12T18:26:53.091Z,17.50
2018-10-12T18:29:25.939Z,17.40
2018-10-12T18:31:58.779Z,17.20
2018-10-12T18:34:31.624Z,17.20
2018-10-12T18:37:05.147Z,17.10
2018-10-12T18:39:38.197Z,17.00
2018-10-12T18:42:10.526Z,17.10
2018-10-12T18:44:43.196Z,17.00
2018-10-12T18:47:16.265Z,17.00
2018-10-12T18:49:48.804Z,16.90
2018-10-12T18:52:21.540Z,16.90
2018-10-12T18:54:54.216Z,16.90
2018-10-12T18:57:26.835Z,16.80
2018-10-12T19:00:01.451Z,16.70
2018-10-12T19:02:34.630Z,16.70
2018-10-12T19:05:07.703Z,16.60
2018-10-12T19:07:40.617Z,16.60
2018-10-12T19:10:14.270Z,16.50
2018-10-12T19:12:49.073Z,16.40
2018-10-12T19:15:24.749Z,16.30
2018-10-12T19:17:59.633Z,16.30
2018-10-12T19:20:33.143Z,16.20
2018-10-12T19:23:06.633Z,16.10
2018-10-12T19:25:40.972Z,16.00
2018-10-12T19:28:14.486Z,16.00
2018-10-12T19:30:48.611Z,15.90
2018-10-12T19:33:24.198Z,15.90
2018-10-12T19:35:58.112Z,15.90
2018-10-12T19:38:31.785Z,15.90
2018-10-12T19:41:07.052Z,15.90
2018-10-12T19:43:39.946Z,15.90
2018-10-12T19:46:14.333Z,15.80
2018-10-12T19:48:47.134Z,15.70
2018-10-12T19:51:21.188Z,15.70
2018-10-12T19:53:54.564Z,15.60
2018-10-12T19:56:28.408Z,15.50
2018-10-12T19:59:01.479Z,15.50
2018-10-12T20:01:35.144Z,15.40
2018-10-12T20:04:08.632Z,15.40
2018-10-12T20:06:42.341Z,15.40
2018-10-12T20:09:15.445Z,15.40
2018-10-12T20:11:48.829Z,15.40
2018-10-12T20:14:21.839Z,15.20
2018-10-12T20:16:55.475Z,15.10
2018-10-12T20:19:28.389Z,15.00
2018-10-12T20:22:01.348Z,15.00
2018-10-12T20:24:34.357Z,14.90
2018-10-12T20:27:09.342Z,14.80
2018-10-12T20:29:42.056Z,14.80
2018-10-12T20:32:17.969Z,14.80
2018-10-12T20:34:50.856Z,14.70
2018-10-12T20:37:23.650Z,14.70
2018-10-12T20:39:56.840Z,14.60
2018-10-12T20:42:30.366Z,14.60
2018-10-12T20:45:02.812Z,14.50
2018-10-12T20:47:35.824Z,14.40
2018-10-12T20:50:08.438Z,14.40
2018-10-12T20:52:41.839Z,14.40
2018-10-12T20:55:14.316Z,14.40
2018-10-12T20:57:48.498Z,14.40
2018-10-12T21:00:21.859Z,14.50
2018-10-12T21:02:55.278Z,14.50
2018-10-12T21:05:27.704Z,14.50
2018-10-12T21:08:01.757Z,14.50
2018-10-12T21:10:34.517Z,14.50
2018-10-12T21:13:07.991Z,14.40
2018-10-12T21:15:41.313Z,14.40
2018-10-12T21:18:14.874Z,14.30
2018-10-12T21:20:47.266Z,14.20
2018-10-12T21:23:20.232Z,14.20
2018-10-12T21:25:53.060Z,14.10
2018-10-12T21:28:26.364Z,14.20
2018-10-12T21:30:59.577Z,14.10
2018-10-12T21:33:32.419Z,14.00
2018-10-12T21:36:04.194Z,14.00
2018-10-12T21:38:35.980Z,14.00
2018-10-12T21:41:07.496Z,14.00
2018-10-12T21:43:38.579Z,14.00
2018-10-12T21:46:09.917Z,14.10
2018-10-12T21:48:41.476Z,14.20
2018-10-12T21:51:14.370Z,14.20
2018-10-12T21:53:45.821Z,14.30
2018-10-12T21:56:16.898Z,14.40
2018-10-12T21:58:48.396Z,14.40
2018-10-12T22:01:20.509Z,14.30
2018-10-12T22:03:52.613Z,14.20
2018-10-12T22:06:24.438Z,14.10
2018-10-12T22:09:01.066Z,13.90
2018-10-12T22:11:31.861Z,13.90
2018-10-12T22:14:04.199Z,13.80
2018-10-12T22:16:35.267Z,13.70
2018-10-12T22:19:07.988Z,13.70
2018-10-12T22:21:39.757Z,13.70
2018-10-12T22:24:10.866Z,13.70
2018-10-12T22:26:41.665Z,13.70
2018-10-12T22:29:12.561Z,13.70
2018-10-12T22:31:43.299Z,13.70
2018-10-12T22:34:14.494Z,13.60
2018-10-12T22:36:45.741Z,13.60
2018-10-12T22:39:17.745Z,13.50
2018-10-12T22:41:48.542Z,13.50
2018-10-12T22:44:19.551Z,13.40
2018-10-12T22:46:50.309Z,13.40
2018-10-12T22:49:21.082Z,13.30
2018-10-12T22:51:51.944Z,13.30
2018-10-12T22:54:29.236Z,13.30
2018-10-12T22:57:00.296Z,13.20
2018-10-12T22:59:32.556Z,13.10
2018-10-12T23:02:03.374Z,12.90
2018-10-12T23:04:34.125Z,12.80
2018-10-12T23:07:05.024Z,12.80
2018-10-12T23:09:36.082Z,12.80
2018-10-12T23:12:08.453Z,12.90
2018-10-12T23:14:39.524Z,13.00
2018-10-12T23:17:10.385Z,13.00
2018-10-12T23:19:41.161Z,13.00
2018-10-12T23:22:13.080Z,13.00
2018-10-12T23:24:44.087Z,13.00
2018-10-12T23:27:14.800Z,12.90
2018-10-12T23:29:45.599Z,12.80
2018-10-12T23:32:16.817Z,12.90
2018-10-12T23:34:48.722Z,12.90
2018-10-12T23:37:19.598Z,12.90
2018-10-12T23:39:50.589Z,12.80
2018-10-12T23:42:21.478Z,12.80
2018-10-12T23:44:52.215Z,12.70
2018-10-12T23:47:23.064Z,12.70
2018-10-12T23:49:53.745Z,12.70
2018-10-12T23:52:31.206Z,12.70
2018-10-12T23:55:02.268Z,12.60
2018-10-12T23:57:33.230Z,12.50
